Time;durP1;ratioP1;P1;durP2;ratioP2;P2;SDS_P1;SDS_P2;PMS_P1;PMS_P2;Temp;Humidity;BMP_temperature;BMP_pressure;BME280_temperature;BME280_humidity;BME280_pressure;Samples;Min_cycle;Max_cycle;Signal;HPM_P1;HPM_P2
2023/12/08 00:02:08;;;;;;;0.30;0.20;;;3.60;99.90;;;;;;5093623;28;20244;-75
2023/12/08 00:04:34;;;;;;;0.30;0.20;;;3.70;99.90;;;;;;5091995;28;20447;-77
2023/12/08 00:07:00;;;;;;;0.30;0.20;;;3.60;99.90;;;;;;5091887;28;20188;-77
2023/12/08 00:09:25;;;;;;;0.30;0.20;;;3.70;99.90;;;;;;5091909;28;20607;-75
2023/12/08 00:11:51;;;;;;;0.30;0.20;;;3.70;99.90;;;;;;5091551;28;20489;-75
2023/12/08 00:14:17;;;;;;;0.30;0.20;;;3.60;99.90;;;;;;5093266;28;20245;-78
2023/12/08 00:16:43;;;;;;;0.30;0.20;;;3.70;99.90;;;;;;5092644;28;20228;-75
2023/12/08 00:19:10;;;;;;;0.30;0.20;;;3.60;99.90;;;;;;5093191;28;20196;-75
2023/12/08 00:21:36;;;;;;;0.30;0.20;;;3.70;99.90;;;;;;5092613;28;20284;-78
2023/12/08 00:24:02;;;;;;;0.30;0.20;;;3.70;99.90;;;;;;5091711;28;20284;-77
2023/12/08 00:26:28;;;;;;;0.30;0.20;;;3.60;99.90;;;;;;5092520;28;20226;-76
2023/12/08 00:28:54;;;;;;;0.30;0.20;;;3.60;99.90;;;;;;5091802;28;20470;-75
2023/12/08 00:31:20;;;;;;;0.30;0.20;;;3.60;99.90;;;;;;5090579;28;20615;-75
2023/12/08 00:33:45;;;;;;;0.30;0.20;;;3.60;99.90;;;;;;5092867;28;20233;-75
2023/12/08 00:36:18;;;;;;;0.30;0.20;;;3.60;99.90;;;;;;5091160;28;20187;-75
2023/12/08 00:38:44;;;;;;;0.30;0.20;;;3.60;99.90;;;;;;5092865;28;20188;-75
2023/12/08 00:41:10;;;;;;;0.30;0.20;;;3.60;99.90;;;;;;5092361;28;20173;-75
2023/12/08 00:43:36;;;;;;;0.30;0.20;;;3.60;99.90;;;;;;5092307;28;20204;-75
2023/12/08 00:46:03;;;;;;;0.30;0.20;;;3.60;99.90;;;;;;5092533;28;20177;-75
2023/12/08 00:48:29;;;;;;;0.30;0.20;;;3.60;99.90;;;;;;5092917;28;20696;-77
2023/12/08 00:50:55;;;;;;;0.30;0.20;;;3.60;99.90;;;;;;5090352;28;20176;-77
2023/12/08 00:53:20;;;;;;;0.30;0.20;;;3.60;99.90;;;;;;5091134;28;20449;-77
2023/12/08 00:55:46;;;;;;;0.30;0.20;;;3.70;99.90;;;;;;5091537;28;20173;-78
2023/12/08 00:58:14;;;;;;;0.30;0.20;;;3.70;99.90;;;;;;5092684;28;20188;-75
2023/12/08 01:00:40;;;;;;;0.30;0.20;;;3.60;99.90;;;;;;5090790;28;20226;-75
2023/12/08 01:03:06;;;;;;;0.30;0.30;;;3.60;99.90;;;;;;5092376;28;20216;-77
2023/12/08 01:05:31;;;;;;;0.30;0.20;;;3.60;99.90;;;;;;5090976;28;20192;-77
2023/12/08 01:07:57;;;;;;;0.30;0.20;;;3.60;99.90;;;;;;5090690;28;20192;-75
2023/12/08 01:10:23;;;;;;;0.30;0.20;;;3.60;99.90;;;;;;5090784;28;20219;-76
2023/12/08 01:12:48;;;;;;;0.30;0.20;;;3.60;99.90;;;;;;5092189;28;20173;-76
2023/12/08 01:15:14;;;;;;;0.30;0.20;;;3.60;99.90;;;;;;5091774;28;20641;-75
2023/12/08 01:17:40;;;;;;;0.30;0.20;;;3.60;99.90;;;;;;5090742;28;20289;-77
2023/12/08 01:20:07;;;;;;;0.30;0.20;;;3.60;99.90;;;;;;5092243;28;20165;-75
2023/12/08 01:22:33;;;;;;;0.30;0.20;;;3.60;99.90;;;;;;5090216;28;20227;-75
2023/12/08 01:24:59;;;;;;;0.30;0.20;;;3.60;99.90;;;;;;5090286;28;20681;-76
2023/12/08 01:27:25;;;;;;;0.30;0.20;;;3.60;99.90;;;;;;5090567;28;20204;-75
2023/12/08 01:29:51;;;;;;;0.30;0.20;;;3.60;99.90;;;;;;5091504;28;20396;-77
2023/12/08 01:32:17;;;;;;;0.30;0.20;;;3.60;99.90;;;;;;5091012;28;20533;-76
2023/12/08 01:34:43;;;;;;;0.30;0.20;;;3.60;99.90;;;;;;5091165;28;20188;-77
2023/12/08 01:37:08;;;;;;;0.30;0.20;;;3.60;99.90;;;;;;5091656;28;20180;-78
2023/12/08 01:39:34;;;;;;;0.30;0.20;;;3.60;99.90;;;;;;5089911;28;20833;-75
2023/12/08 01:42:00;;;;;;;0.30;0.20;;;3.60;99.90;;;;;;5091396;28;20223;-77
2023/12/08 01:44:25;;;;;;;0.30;0.20;;;3.60;99.90;;;;;;5092142;28;20284;-77
2023/12/08 01:46:51;;;;;;;0.30;0.20;;;3.60;99.90;;;;;;5091107;28;20168;-77
2023/12/08 01:49:18;;;;;;;0.30;0.20;;;3.60;99.90;;;;;;5091494;28;20713;-77
2023/12/08 01:51:45;;;;;;;0.30;0.20;;;3.60;99.90;;;;;;5088971;28;20358;-77
2023/12/08 01:54:14;;;;;;;0.30;0.20;;;3.60;99.90;;;;;;5091732;28;20451;-75
2023/12/08 01:56:40;;;;;;;0.30;0.20;;;3.60;99.90;;;;;;5090828;28;20161;-77
2023/12/08 01:59:08;;;;;;;0.30;0.20;;;3.60;99.90;;;;;;5091193;28;20564;-78
2023/12/08 02:01:34;;;;;;;0.30;0.20;;;3.60;99.90;;;;;;5090932;28;20265;-77
2023/12/08 02:04:00;;;;;;;0.30;0.20;;;3.60;99.90;;;;;;5089832;28;20736;-80
2023/12/08 02:06:26;;;;;;;0.30;0.20;;;3.60;99.90;;;;;;5090827;28;20177;-80
2023/12/08 02:08:52;;;;;;;0.30;0.20;;;3.60;99.90;;;;;;5088548;28;20215;-79
2023/12/08 02:11:18;;;;;;;0.30;0.20;;;3.60;99.90;;;;;;5089570;28;20180;-75
2023/12/08 02:13:45;;;;;;;0.30;0.20;;;3.60;99.90;;;;;;5089656;28;20193;-77
2023/12/08 02:16:16;;;;;;;0.30;0.20;;;3.60;99.90;;;;;;5089241;28;20610;-77
2023/12/08 02:18:44;;;;;;;0.30;0.20;;;3.60;99.90;;;;;;5090844;28;20275;-75
2023/12/08 02:21:11;;;;;;;0.38;0.35;;;3.60;99.90;;;;;;5089306;28;20272;-75
2023/12/08 02:23:37;;;;;;;0.63;0.63;;;3.60;99.90;;;;;;5089509;28;20204;-77
2023/12/08 02:26:04;;;;;;;0.30;0.20;;;3.60;99.90;;;;;;5089180;28;20533;-77
2023/12/08 02:28:30;;;;;;;0.30;0.20;;;3.60;99.90;;;;;;5090914;28;20200;-75
2023/12/08 02:30:57;;;;;;;0.30;0.20;;;3.60;99.90;;;;;;5089042;28;20601;-76
2023/12/08 02:33:32;;;;;;;0.30;0.20;;;3.70;99.90;;;;;;5091071;28;21130;-77
2023/12/08 02:36:01;;;;;;;0.30;0.20;;;3.60;99.90;;;;;;5089107;28;20651;-75
2023/12/08 02:38:27;;;;;;;0.30;0.20;;;3.70;99.90;;;;;;5089327;28;20341;-77
2023/12/08 02:40:55;;;;;;;0.30;0.20;;;3.70;99.90;;;;;;5090152;28;20228;-77
2023/12/08 02:43:21;;;;;;;0.30;0.20;;;3.60;99.90;;;;;;5089095;28;20212;-78
2023/12/08 02:45:46;;;;;;;0.30;0.20;;;3.60;99.90;;;;;;5090061;28;20180;-75
2023/12/08 02:48:12;;;;;;;0.30;0.20;;;3.60;99.90;;;;;;5089051;28;20188;-75
2023/12/08 02:50:39;;;;;;;0.30;0.20;;;3.60;99.90;;;;;;5090080;28;20556;-77
2023/12/08 02:53:05;;;;;;;0.30;0.20;;;3.60;99.90;;;;;;5088230;28;20196;-77
2023/12/08 02:55:31;;;;;;;0.30;0.20;;;3.60;99.90;;;;;;5090027;28;20172;-75
2023/12/08 02:57:56;;;;;;;0.30;0.20;;;3.60;99.90;;;;;;5088603;28;20264;-75
2023/12/08 03:00:22;;;;;;;0.30;0.20;;;3.60;99.90;;;;;;5088671;28;20189;-75
2023/12/08 03:02:47;;;;;;;0.30;0.20;;;3.60;99.90;;;;;;5088623;28;20212;-77
2023/12/08 03:05:13;;;;;;;0.30;0.20;;;3.60;99.90;;;;;;5088663;28;20176;-77
2023/12/08 03:07:39;;;;;;;0.30;0.20;;;3.60;99.90;;;;;;5089967;28;20172;-75
2023/12/08 03:10:05;;;;;;;0.30;0.20;;;3.60;99.90;;;;;;5089499;28;20570;-77
2023/12/08 03:12:31;;;;;;;0.30;0.20;;;3.60;99.90;;;;;;5088619;28;20176;-77
2023/12/08 03:14:56;;;;;;;0.30;0.20;;;3.60;99.90;;;;;;5088055;28;20227;-77
2023/12/08 03:17:22;;;;;;;0.30;0.20;;;3.60;99.90;;;;;;5088399;28;20462;-77
2023/12/08 03:19:48;;;;;;;0.30;0.20;;;3.60;99.90;;;;;;5089099;28;20193;-75
2023/12/08 03:22:13;;;;;;;0.30;0.20;;;3.60;99.90;;;;;;5088321;28;20227;-75
2023/12/08 03:24:39;;;;;;;0.30;0.20;;;3.60;99.90;;;;;;5089830;28;20196;-76
2023/12/08 03:27:04;;;;;;;0.30;0.20;;;3.60;99.90;;;;;;5089746;28;20525;-78
2023/12/08 03:29:30;;;;;;;0.30;0.20;;;3.60;99.90;;;;;;5089831;28;20250;-75
2023/12/08 03:31:56;;;;;;;0.30;0.20;;;3.60;99.90;;;;;;5089500;28;20255;-77
2023/12/08 03:34:21;;;;;;;0.30;0.20;;;3.60;99.90;;;;;;5089878;28;20521;-75
2023/12/08 03:36:47;;;;;;;0.30;0.20;;;3.60;99.90;;;;;;5089326;28;20183;-75
2023/12/08 03:39:13;;;;;;;0.30;0.20;;;3.60;99.90;;;;;;5088289;28;20214;-76
2023/12/08 03:41:38;;;;;;;0.30;0.20;;;3.60;99.90;;;;;;5088905;28;20696;-77
2023/12/08 03:44:04;;;;;;;0.30;0.20;;;3.60;99.90;;;;;;5088470;28;20436;-75
2023/12/08 03:46:30;;;;;;;0.30;0.20;;;3.60;99.90;;;;;;5088121;28;20645;-76
2023/12/08 03:48:55;;;;;;;0.30;0.20;;;3.60;99.90;;;;;;5089598;28;20649;-77
2023/12/08 03:51:21;;;;;;;0.30;0.20;;;3.60;99.90;;;;;;5089473;28;20696;-78
2023/12/08 03:53:46;;;;;;;0.30;0.20;;;3.60;99.90;;;;;;5089217;28;20850;-75
2023/12/08 03:56:12;;;;;;;0.30;0.20;;;3.60;99.90;;;;;;5087873;28;20181;-75
2023/12/08 03:58:38;;;;;;;0.30;0.20;;;3.60;99.90;;;;;;5088072;28;20283;-75
2023/12/08 04:01:04;;;;;;;0.30;0.20;;;3.60;99.90;;;;;;5088055;28;20187;-75
2023/12/08 04:03:29;;;;;;;0.30;0.20;;;3.60;99.90;;;;;;5087912;28;20216;-77
2023/12/08 04:05:55;;;;;;;0.30;0.20;;;3.60;99.90;;;;;;5089047;28;20445;-76
2023/12/08 04:08:21;;;;;;;0.30;0.20;;;3.60;99.90;;;;;;5088116;28;20697;-77
2023/12/08 04:10:47;;;;;;;0.30;0.20;;;3.60;99.90;;;;;;5088901;28;20172;-78
2023/12/08 04:13:13;;;;;;;0.30;0.20;;;3.60;99.90;;;;;;5089535;28;20200;-77
2023/12/08 04:15:38;;;;;;;0.30;0.20;;;3.60;99.90;;;;;;5087558;28;20185;-78
2023/12/08 04:18:05;;;;;;;0.30;0.20;;;3.60;99.90;;;;;;5089631;28;20200;-75
2023/12/08 04:20:31;;;;;;;0.30;0.20;;;3.60;99.90;;;;;;5088920;28;20350;-76
2023/12/08 04:22:57;;;;;;;0.30;0.20;;;3.60;99.90;;;;;;5089256;28;20216;-77
2023/12/08 04:25:23;;;;;;;0.30;0.20;;;3.70;99.90;;;;;;5089162;28;20180;-77
2023/12/08 04:27:48;;;;;;;0.30;0.20;;;3.60;99.90;;;;;;5087824;28;20218;-76
2023/12/08 04:30:14;;;;;;;0.30;0.20;;;3.70;99.90;;;;;;5089120;28;20656;-77
2023/12/08 04:32:39;;;;;;;0.30;0.20;;;3.70;99.90;;;;;;5092391;28;20251;-77
2023/12/08 04:35:05;;;;;;;0.30;0.20;;;3.70;99.90;;;;;;5092731;28;20175;-77
2023/12/08 04:37:31;;;;;;;0.30;0.20;;;3.70;99.90;;;;;;5092802;28;20268;-75
2023/12/08 04:39:57;;;;;;;0.30;0.20;;;3.70;99.90;;;;;;5091433;28;20600;-75
2023/12/08 04:42:22;;;;;;;0.30;0.20;;;3.60;99.90;;;;;;5091169;28;20238;-75
2023/12/08 04:44:48;;;;;;;0.50;0.40;;;3.60;99.90;;;;;;5092304;28;20192;-75
2023/12/08 04:47:14;;;;;;;0.30;0.20;;;3.70;99.90;;;;;;5092566;28;20165;-77
2023/12/08 04:49:39;;;;;;;0.30;0.20;;;3.60;99.90;;;;;;5092332;28;20201;-77
2023/12/08 04:52:05;;;;;;;0.30;0.20;;;3.70;99.90;;;;;;5090976;28;20633;-77
2023/12/08 04:54:31;;;;;;;0.30;0.20;;;3.70;99.90;;;;;;5090479;28;20582;-77
2023/12/08 04:56:56;;;;;;;0.30;0.20;;;3.70;99.90;;;;;;5092330;28;20172;-77
2023/12/08 04:59:22;;;;;;;0.30;0.20;;;3.70;99.90;;;;;;5091102;28;20231;-77
2023/12/08 05:01:51;;;;;;;0.30;0.20;;;3.70;99.90;;;;;;5090563;28;20208;-75
2023/12/08 05:04:18;;;;;;;0.30;0.20;;;3.70;99.90;;;;;;5092278;28;20433;-75
2023/12/08 05:06:45;;;;;;;0.30;0.20;;;3.70;99.90;;;;;;5087407;28;20702;-75
2023/12/08 05:09:11;;;;;;;0.30;0.20;;;3.70;99.90;;;;;;5089834;28;20196;-77
2023/12/08 05:11:37;;;;;;;0.30;0.20;;;3.80;99.90;;;;;;5091424;28;20646;-75
2023/12/08 05:14:02;;;;;;;0.30;0.20;;;3.80;99.90;;;;;;5107014;27;20645;-76
2023/12/08 05:16:29;;;;;;;0.30;0.20;;;3.80;99.90;;;;;;5093566;28;20227;-77
2023/12/08 05:18:54;;;;;;;0.30;0.20;;;3.80;99.90;;;;;;5091560;28;20224;-77
2023/12/08 05:21:20;;;;;;;0.30;0.20;;;3.80;99.90;;;;;;5102167;28;20575;-76
2023/12/08 05:23:46;;;;;;;0.30;0.20;;;3.80;99.90;;;;;;5097418;28;20671;-75
2023/12/08 05:26:11;;;;;;;0.30;0.20;;;3.80;99.90;;;;;;5101315;28;20176;-75
2023/12/08 05:28:37;;;;;;;0.30;0.20;;;3.90;99.90;;;;;;5087275;28;20204;-76
2023/12/08 05:31:04;;;;;;;0.30;0.20;;;3.90;99.90;;;;;;5084996;28;20580;-75
2023/12/08 05:33:30;;;;;;;0.30;0.20;;;3.90;99.90;;;;;;5086181;28;20208;-75
2023/12/08 05:35:56;;;;;;;0.30;0.20;;;3.90;99.90;;;;;;5080174;28;20180;-78
2023/12/08 05:38:22;;;;;;;0.30;0.20;;;3.90;99.90;;;;;;5082906;28;20415;-74
2023/12/08 05:40:47;;;;;;;0.30;0.20;;;3.90;99.90;;;;;;5087432;28;20318;-75
2023/12/08 05:43:13;;;;;;;0.30;0.20;;;3.90;99.90;;;;;;5072765;28;20493;-75
2023/12/08 05:45:39;;;;;;;0.30;0.20;;;3.90;99.90;;;;;;5072704;28;20404;-75
2023/12/08 05:48:05;;;;;;;0.30;0.20;;;4.00;99.90;;;;;;5072341;28;20200;-77
2023/12/08 05:50:31;;;;;;;0.30;0.20;;;4.00;99.90;;;;;;5073660;28;20379;-77
2023/12/08 05:52:56;;;;;;;0.30;0.20;;;4.00;99.90;;;;;;5074003;28;20483;-75
2023/12/08 05:55:22;;;;;;;0.30;0.20;;;4.00;99.90;;;;;;5091042;28;20180;-77
2023/12/08 05:57:48;;;;;;;0.30;0.20;;;4.00;99.90;;;;;;5078105;28;20428;-77
2023/12/08 06:00:17;;;;;;;0.30;0.20;;;4.00;99.90;;;;;;5094225;28;20379;-75
2023/12/08 06:02:43;;;;;;;0.30;0.20;;;4.00;99.90;;;;;;5093527;28;20215;-77
2023/12/08 06:05:11;;;;;;;0.30;0.20;;;4.00;99.90;;;;;;5104338;27;20187;-76
2023/12/08 06:07:37;;;;;;;0.30;0.20;;;4.10;99.90;;;;;;5089443;28;20238;-76
2023/12/08 06:10:03;;;;;;;0.30;0.20;;;4.10;99.90;;;;;;5094701;28;20727;-77
2023/12/08 06:12:29;;;;;;;0.30;0.20;;;4.10;99.90;;;;;;5092961;28;20330;-77
2023/12/08 06:14:59;;;;;;;0.30;0.20;;;4.10;99.90;;;;;;5100037;28;20199;-75
2023/12/08 06:17:25;;;;;;;0.30;0.20;;;4.10;99.90;;;;;;5092780;28;20372;-77
2023/12/08 06:19:50;;;;;;;0.30;0.20;;;4.20;99.90;;;;;;5078785;28;20511;-75
2023/12/08 06:22:16;;;;;;;0.30;0.20;;;4.20;99.90;;;;;;5087356;28;20220;-77
2023/12/08 06:24:42;;;;;;;0.30;0.20;;;4.20;99.90;;;;;;5085869;28;20683;-77
2023/12/08 06:27:07;;;;;;;0.30;0.30;;;4.20;99.90;;;;;;5085297;28;20185;-77
2023/12/08 06:29:33;;;;;;;0.30;0.20;;;4.20;99.90;;;;;;5083884;28;20495;-77
2023/12/08 06:31:59;;;;;;;0.30;0.20;;;4.20;99.90;;;;;;5082966;28;20177;-75
2023/12/08 06:34:24;;;;;;;0.30;0.20;;;4.20;99.90;;;;;;5081265;28;20306;-75
2023/12/08 06:36:50;;;;;;;0.30;0.20;;;4.30;99.90;;;;;;5087997;28;20188;-75
2023/12/08 06:39:16;;;;;;;0.30;0.20;;;4.20;99.90;;;;;;5096905;28;20200;-75
2023/12/08 06:41:41;;;;;;;0.30;0.20;;;4.20;99.90;;;;;;5086934;28;20677;-75
2023/12/08 06:44:07;;;;;;;0.30;0.20;;;4.20;99.90;;;;;;5092344;28;20423;-77
2023/12/08 06:46:33;;;;;;;0.30;0.20;;;4.20;99.90;;;;;;5092369;28;20657;-76
2023/12/08 06:48:59;;;;;;;0.30;0.30;;;4.20;99.90;;;;;;5095036;28;21065;-77
2023/12/08 06:51:24;;;;;;;0.30;0.20;;;4.20;99.90;;;;;;5085799;28;20188;-75
2023/12/08 06:53:50;;;;;;;0.30;0.20;;;4.20;99.90;;;;;;5080239;28;20204;-77
2023/12/08 06:56:16;;;;;;;0.30;0.20;;;4.20;99.90;;;;;;5087687;28;20196;-77
2023/12/08 06:58:41;;;;;;;0.30;0.20;;;4.20;99.90;;;;;;5082130;28;20223;-75
2023/12/08 07:01:07;;;;;;;0.30;0.20;;;4.20;99.90;;;;;;5077883;28;20716;-78
2023/12/08 07:03:33;;;;;;;0.30;0.20;;;4.20;99.90;;;;;;5079330;28;20219;-78
2023/12/08 07:05:58;;;;;;;0.30;0.20;;;4.30;99.90;;;;;;5069629;28;20189;-75
2023/12/08 07:08:24;;;;;;;0.30;0.20;;;4.20;99.90;;;;;;5074355;28;20260;-76
2023/12/08 07:10:50;;;;;;;0.30;0.20;;;4.20;99.90;;;;;;5081067;28;20178;-75
2023/12/08 07:13:15;;;;;;;0.30;0.20;;;4.30;99.90;;;;;;5080434;28;20491;-75
2023/12/08 07:15:41;;;;;;;0.30;0.30;;;4.20;99.90;;;;;;5076449;28;20176;-77
2023/12/08 07:18:07;;;;;;;0.30;0.30;;;4.20;99.90;;;;;;5080137;28;20309;-76
2023/12/08 07:20:32;;;;;;;0.30;0.20;;;4.20;99.90;;;;;;5070315;28;20316;-77
2023/12/08 07:22:58;;;;;;;0.30;0.30;;;4.20;99.90;;;;;;5065182;28;20247;-75
2023/12/08 07:25:24;;;;;;;0.30;0.20;;;4.20;99.90;;;;;;5080225;28;20176;-76
2023/12/08 07:27:49;;;;;;;0.30;0.20;;;4.20;99.90;;;;;;5083757;28;20586;-76
2023/12/08 07:30:15;;;;;;;0.30;0.20;;;4.20;99.90;;;;;;5082542;28;20260;-76
2023/12/08 07:32:41;;;;;;;0.30;0.20;;;4.20;99.90;;;;;;5083908;28;20172;-78
2023/12/08 07:35:07;;;;;;;0.30;0.20;;;4.20;99.90;;;;;;5088659;28;20275;-78
2023/12/08 07:37:32;;;;;;;0.30;0.20;;;4.20;99.90;;;;;;5077717;28;20188;-76
2023/12/08 07:39:58;;;;;;;0.60;0.60;;;4.20;99.90;;;;;;5083112;28;20816;-78
2023/12/08 07:42:24;;;;;;;0.30;0.20;;;4.20;99.90;;;;;;5088285;28;20211;-76
2023/12/08 07:44:52;;;;;;;0.30;0.20;;;4.20;99.90;;;;;;5076521;28;20214;-78
2023/12/08 07:47:18;;;;;;;0.30;0.20;;;4.30;99.90;;;;;;5072648;28;20183;-78
2023/12/08 07:49:44;;;;;;;0.30;0.20;;;4.30;99.90;;;;;;5077283;28;20212;-78
2023/12/08 07:52:11;;;;;;;0.30;0.20;;;4.20;99.90;;;;;;5083702;28;20191;-78
2023/12/08 07:54:37;;;;;;;0.30;0.20;;;4.20;99.90;;;;;;5088980;28;20214;-75
2023/12/08 07:57:03;;;;;;;0.30;0.20;;;4.20;99.90;;;;;;5081757;28;20640;-75
2023/12/08 07:59:28;;;;;;;0.30;0.20;;;4.20;99.90;;;;;;5084404;28;20204;-78
2023/12/08 08:01:54;;;;;;;0.30;0.20;;;4.20;99.90;;;;;;5085211;28;20439;-77
2023/12/08 08:04:20;;;;;;;0.30;0.20;;;4.20;99.90;;;;;;5082477;28;20207;-75
2023/12/08 08:06:45;;;;;;;0.30;0.30;;;4.20;99.90;;;;;;5086739;28;20540;-77
2023/12/08 08:09:11;;;;;;;0.30;0.20;;;4.20;99.90;;;;;;5085624;28;20734;-76
2023/12/08 08:11:37;;;;;;;0.30;0.20;;;4.20;99.90;;;;;;5090698;27;20250;-76
2023/12/08 08:14:02;;;;;;;0.30;0.20;;;4.20;99.90;;;;;;5077887;28;20443;-76
2023/12/08 08:16:28;;;;;;;0.30;0.20;;;4.20;99.90;;;;;;5089803;28;20289;-76
2023/12/08 08:18:54;;;;;;;0.30;0.20;;;4.20;99.90;;;;;;5085912;28;20680;-76
2023/12/08 08:21:20;;;;;;;0.30;0.20;;;4.10;99.90;;;;;;5083411;28;20184;-78
2023/12/08 08:23:45;;;;;;;0.30;0.20;;;4.20;99.90;;;;;;5086281;28;20216;-76
2023/12/08 08:26:11;;;;;;;0.30;0.20;;;4.20;99.90;;;;;;5092981;28;20397;-78
2023/12/08 08:28:37;;;;;;;0.30;0.20;;;4.20;99.90;;;;;;5087787;28;20345;-76
2023/12/08 08:31:03;;;;;;;0.30;0.20;;;4.20;99.90;;;;;;5097894;28;20199;-76
2023/12/08 08:33:28;;;;;;;0.30;0.20;;;4.20;99.90;;;;;;5097626;28;20409;-79
2023/12/08 08:35:54;;;;;;;0.30;0.20;;;4.20;99.90;;;;;;5089009;28;20960;-77
2023/12/08 08:38:20;;;;;;;0.30;0.20;;;4.20;99.90;;;;;;5082538;28;20204;-76
2023/12/08 08:40:45;;;;;;;0.30;0.30;;;4.20;99.90;;;;;;5085306;28;20267;-78
2023/12/08 08:43:11;;;;;;;0.30;0.20;;;4.20;99.90;;;;;;5091100;28;20809;-78
2023/12/08 08:45:37;;;;;;;0.30;0.20;;;4.20;99.90;;;;;;5094481;28;20177;-78
2023/12/08 08:48:03;;;;;;;0.30;0.20;;;4.20;99.90;;;;;;5088479;28;20371;-78
2023/12/08 08:50:29;;;;;;;0.30;0.20;;;4.20;99.90;;;;;;5086670;28;20417;-78
2023/12/08 08:52:54;;;;;;;0.30;0.20;;;4.20;99.90;;;;;;5093987;28;20216;-78
2023/12/08 08:55:20;;;;;;;0.30;0.20;;;4.20;99.90;;;;;;5091681;28;20417;-78
2023/12/08 08:57:47;;;;;;;0.30;0.20;;;4.30;99.90;;;;;;5072953;28;20221;-76
2023/12/08 09:00:14;;;;;;;0.30;0.20;;;4.30;99.90;;;;;;5088269;28;20213;-78
2023/12/08 09:02:41;;;;;;;0.30;0.20;;;4.30;99.90;;;;;;5071007;28;20233;-79
2023/12/08 09:05:07;;;;;;;0.30;0.20;;;4.30;99.90;;;;;;5068572;28;20184;-76
2023/12/08 09:07:33;;;;;;;0.30;0.30;;;4.30;99.90;;;;;;5074258;28;20188;-76
2023/12/08 09:09:59;;;;;;;0.30;0.20;;;4.30;99.90;;;;;;5069140;28;20195;-76
2023/12/08 09:12:24;;;;;;;0.30;0.20;;;4.30;99.90;;;;;;5078704;28;20202;-76
2023/12/08 09:14:50;;;;;;;0.30;0.20;;;4.40;99.90;;;;;;5094165;28;20800;-78
2023/12/08 09:17:16;;;;;;;0.30;0.20;;;4.40;99.90;;;;;;5087325;28;20243;-76
2023/12/08 09:19:42;;;;;;;0.30;0.20;;;4.40;99.90;;;;;;5085198;28;20490;-76
2023/12/08 09:22:08;;;;;;;0.30;0.20;;;4.40;99.90;;;;;;5088367;28;20208;-78
2023/12/08 09:24:33;;;;;;;0.30;0.20;;;4.40;99.90;;;;;;5082103;28;20280;-76
2023/12/08 09:27:01;;;;;;;0.30;0.20;;;4.50;99.90;;;;;;5086980;28;20224;-78
2023/12/08 09:29:26;;;;;;;0.30;0.20;;;4.50;99.90;;;;;;5073661;28;20211;-76
2023/12/08 09:31:52;;;;;;;0.30;0.20;;;4.50;99.90;;;;;;5068934;27;20724;-78
2023/12/08 09:34:18;;;;;;;0.30;0.20;;;4.50;99.90;;;;;;5066590;28;20404;-78
2023/12/08 09:36:44;;;;;;;0.30;0.20;;;4.50;99.90;;;;;;5075316;28;20175;-78
2023/12/08 09:39:10;;;;;;;0.30;0.20;;;4.50;99.90;;;;;;5080031;28;20221;-78
2023/12/08 09:41:39;;;;;;;0.30;0.20;;;4.60;99.90;;;;;;5085994;28;20424;-78
2023/12/08 09:44:14;;;;;;;0.30;0.20;;;4.60;99.90;;;;;;5082025;28;20476;-78
2023/12/08 09:46:43;;;;;;;0.30;0.20;;;4.60;99.90;;;;;;5079946;28;20801;-78
2023/12/08 09:49:23;;;;;;;0.30;0.20;;;4.60;99.90;;;;;;5081807;28;20482;-76
2023/12/08 09:51:49;;;;;;;0.30;0.20;;;4.60;99.90;;;;;;5070344;28;20565;-75
2023/12/08 09:54:16;;;;;;;0.30;0.20;;;4.60;99.90;;;;;;5085314;28;20204;-78
2023/12/08 09:56:42;;;;;;;0.30;0.20;;;4.70;99.90;;;;;;5086015;28;20400;-79
2023/12/08 09:59:10;;;;;;;0.30;0.20;;;4.70;99.90;;;;;;5081674;28;20250;-76
2023/12/08 10:01:35;;;;;;;0.30;0.20;;;4.70;99.90;;;;;;5080255;28;20446;-76
2023/12/08 10:04:01;;;;;;;0.30;0.20;;;4.80;99.90;;;;;;5085016;28;20207;-76
2023/12/08 10:06:28;;;;;;;0.30;0.20;;;4.80;99.90;;;;;;5079764;28;20181;-79
2023/12/08 10:08:56;;;;;;;0.30;0.20;;;4.90;99.90;;;;;;5083614;28;20219;-78
2023/12/08 10:11:21;;;;;;;0.30;0.20;;;4.90;99.90;;;;;;5081135;28;20188;-76
2023/12/08 10:13:47;;;;;;;0.30;0.20;;;4.90;99.90;;;;;;5078422;28;20672;-76
2023/12/08 10:16:13;;;;;;;0.30;0.20;;;5.00;99.90;;;;;;5080707;28;20678;-79
2023/12/08 10:18:39;;;;;;;0.30;0.20;;;4.90;99.90;;;;;;5074349;28;20214;-76
2023/12/08 10:21:15;;;;;;;0.30;0.20;;;4.90;99.90;;;;;;5069097;28;20184;-79
2023/12/08 10:23:43;;;;;;;0.40;0.30;;;5.00;99.90;;;;;;5076294;28;20238;-76
2023/12/08 10:26:12;;;;;;;0.30;0.20;;;5.00;99.90;;;;;;5077312;28;20242;-76
2023/12/08 10:28:39;;;;;;;0.30;0.20;;;5.00;99.90;;;;;;5090294;27;20243;-78
2023/12/08 10:31:05;;;;;;;0.30;0.20;;;5.10;99.90;;;;;;5080704;28;20173;-76
2023/12/08 10:33:31;;;;;;;0.30;0.20;;;5.10;99.90;;;;;;5077187;28;20258;-79
2023/12/08 10:35:57;;;;;;;0.30;0.20;;;5.10;99.90;;;;;;5079274;28;20219;-78
2023/12/08 10:38:23;;;;;;;0.30;0.20;;;5.10;99.90;;;;;;5069567;28;20205;-76
2023/12/08 10:40:53;;;;;;;0.40;0.40;;;5.10;99.90;;;;;;5068810;28;20184;-78
2023/12/08 10:43:25;;;;;;;0.30;0.20;;;5.20;99.90;;;;;;5090031;27;20478;-78
2023/12/08 10:45:51;;;;;;;0.30;0.20;;;5.20;99.90;;;;;;5079643;28;20196;-78
2023/12/08 10:48:21;;;;;;;0.30;0.20;;;5.10;99.90;;;;;;5084570;28;20200;-76
2023/12/08 10:50:52;;;;;;;0.30;0.20;;;5.20;99.90;;;;;;5080094;28;20177;-78
2023/12/08 10:53:19;;;;;;;0.30;0.20;;;5.10;99.90;;;;;;5083837;28;20626;-76
2023/12/08 10:56:05;;;;;;;0.30;0.20;;;5.10;99.90;;;;;;5077198;28;20325;-78
2023/12/08 10:58:34;;;;;;;0.30;0.20;;;5.10;99.90;;;;;;5071445;28;20451;-78
2023/12/08 11:01:14;;;;;;;0.30;0.20;;;5.10;99.90;;;;;;5076203;28;20184;-77
2023/12/08 11:03:42;;;;;;;0.30;0.20;;;5.00;99.90;;;;;;5089462;28;20276;-76
2023/12/08 11:06:12;;;;;;;0.30;0.20;;;5.10;99.90;;;;;;5086674;28;20413;-76
2023/12/08 11:08:44;;;;;;;0.30;0.20;;;5.10;99.90;;;;;;5084754;28;20246;-78
2023/12/08 11:11:12;;;;;;;0.30;0.20;;;5.10;99.90;;;;;;5089507;28;20190;-76
2023/12/08 11:13:43;;;;;;;0.30;0.20;;;5.10;99.90;;;;;;5089348;28;20204;-76
2023/12/08 11:16:29;;;;;;;0.30;0.20;;;5.10;99.90;;;;;;5090057;28;20220;-78
2023/12/08 11:18:56;;;;;;;0.30;0.20;;;5.10;99.90;;;;;;5080610;28;20196;-78
2023/12/08 11:21:22;;;;;;;0.30;0.20;;;5.10;99.90;;;;;;5083093;28;20211;-78
2023/12/08 11:23:49;;;;;;;0.30;0.20;;;5.20;99.90;;;;;;5085982;28;20824;-76
2023/12/08 11:26:40;;;;;;;0.30;0.20;;;5.20;99.90;;;;;;5086861;28;20263;-78
2023/12/08 11:29:13;;;;;;;0.30;0.20;;;5.20;99.90;;;;;;5081855;28;20200;-76
2023/12/08 11:32:01;;;;;;;0.30;0.20;;;5.20;99.90;;;;;;5087108;28;20653;-76
2023/12/08 11:34:52;;;;;;;0.30;0.22;;;5.20;99.90;;;;;;5079749;28;20840;-78
2023/12/08 11:37:17;;;;;;;0.30;0.20;;;5.30;99.90;;;;;;5079116;28;20176;-79
2023/12/08 11:39:44;;;;;;;0.30;0.20;;;5.30;99.90;;;;;;5080391;28;20204;-78
2023/12/08 11:42:12;;;;;;;0.30;0.20;;;5.40;99.90;;;;;;5086293;28;20266;-76
2023/12/08 11:44:42;;;;;;;0.30;0.20;;;5.40;99.90;;;;;;5085459;28;20279;-76
2023/12/08 11:47:09;;;;;;;0.30;0.20;;;5.40;99.90;;;;;;5088417;28;20191;-78
2023/12/08 11:49:36;;;;;;;0.30;0.20;;;5.50;99.90;;;;;;5078997;28;20226;-79
2023/12/08 11:52:15;;;;;;;0.30;0.20;;;5.50;99.90;;;;;;5090449;27;20633;-78
2023/12/08 11:55:22;;;;;;;0.30;0.30;;;5.50;99.90;;;;;;5085772;28;20399;-76
2023/12/08 11:58:06;;;;;;;0.30;0.20;;;5.50;99.90;;;;;;5079742;28;20676;-78
2023/12/08 12:00:34;;;;;;;0.30;0.20;;;5.60;99.90;;;;;;5085330;28;20561;-76
2023/12/08 12:02:59;;;;;;;0.30;0.20;;;5.60;99.90;;;;;;5083331;28;20790;-79
2023/12/08 12:05:26;;;;;;;0.30;0.20;;;5.60;99.90;;;;;;5085313;28;20184;-79
2023/12/08 12:07:53;;;;;;;0.30;0.20;;;5.60;99.90;;;;;;5087122;28;20461;-78
2023/12/08 12:10:30;;;;;;;0.30;0.20;;;5.60;99.90;;;;;;5076650;28;20200;-76
2023/12/08 12:13:12;;;;;;;0.30;0.20;;;5.60;99.90;;;;;;5073259;28;20238;-79
2023/12/08 12:15:40;;;;;;;0.30;0.20;;;5.60;99.90;;;;;;5073648;28;20223;-78
2023/12/08 12:18:07;;;;;;;0.30;0.20;;;5.60;99.90;;;;;;5079345;28;20755;-76
2023/12/08 12:20:35;;;;;;;0.30;0.20;;;5.60;99.90;;;;;;5084124;28;20188;-76
2023/12/08 12:23:01;;;;;;;0.30;0.20;;;5.70;99.90;;;;;;5070750;28;20321;-78
2023/12/08 12:25:27;;;;;;;0.30;0.20;;;5.70;99.90;;;;;;5074339;28;20180;-77
2023/12/08 12:27:54;;;;;;;0.30;0.30;;;5.70;99.90;;;;;;5082796;28;20196;-77
2023/12/08 12:30:20;;;;;;;0.30;0.20;;;5.70;99.90;;;;;;5079997;28;20185;-76
2023/12/08 12:32:48;;;;;;;0.30;0.20;;;5.80;99.90;;;;;;5079716;28;20552;-78
2023/12/08 12:35:15;;;;;;;0.30;0.30;;;5.80;99.90;;;;;;5070772;28;20183;-76
2023/12/08 12:37:41;;;;;;;0.30;0.30;;;5.80;99.90;;;;;;5073159;28;20180;-77
2023/12/08 12:40:08;;;;;;;0.30;0.20;;;5.80;99.90;;;;;;5087305;28;20199;-76
2023/12/08 12:42:48;;;;;;;0.30;0.20;;;5.90;99.90;;;;;;5076757;28;20209;-76
2023/12/08 12:45:28;;;;;;;0.30;0.20;;;5.80;99.90;;;;;;5083872;28;20184;-78
2023/12/08 12:48:05;;;;;;;0.30;0.20;;;5.90;99.90;;;;;;5067044;28;20484;-79
2023/12/08 12:50:36;;;;;;;0.30;0.30;;;5.90;99.90;;;;;;5078290;28;20212;-76
2023/12/08 12:53:04;;;;;;;0.30;0.20;;;5.90;99.90;;;;;;5080167;28;20243;-78
2023/12/08 12:55:30;;;;;;;0.30;0.20;;;5.80;99.90;;;;;;5086721;28;20421;-78
2023/12/08 12:57:56;;;;;;;0.30;0.20;;;5.80;99.90;;;;;;5087610;28;20594;-78